sensor_id;sensor_type;location;lat;lon;timestamp;pressure;altitude;pressure_sealevel;temperature;humidity
54554;BME280;40450;55.848;-3.572;2023-09-19T00:02:20;97438.96;;;7.56;95.81
54554;BME280;40450;55.848;-3.572;2023-09-19T00:04:51;97448.24;;;8.01;95.20
54554;BME280;40450;55.848;-3.572;2023-09-19T00:07:21;97441.31;;;7.16;97.11
54554;BME280;40450;55.848;-3.572;2023-09-19T00:09:51;97437.11;;;7.63;96.25
54554;BME280;40450;55.848;-3.572;2023-09-19T00:12:22;97433.71;;;7.82;95.76
54554;BME280;40450;55.848;-3.572;2023-09-19T00:14:52;97426.29;;;7.56;96.16
54554;BME280;40450;55.848;-3.572;2023-09-19T00:17:23;97426.48;;;8.18;94.88
54554;BME280;40450;55.848;-3.572;2023-09-19T00:19:53;97428.07;;;8.50;93.70
54554;BME280;40450;55.848;-3.572;2023-09-19T00:22:23;97428.36;;;7.18;96.46
54554;BME280;40450;55.848;-3.572;2023-09-19T00:24:53;97430.87;;;7.16;97.16
54554;BME280;40450;55.848;-3.572;2023-09-19T00:27:29;97428.54;;;7.01;97.81
54554;BME280;40450;55.848;-3.572;2023-09-19T00:30:03;97427.18;;;7.05;97.69
54554;BME280;40450;55.848;-3.572;2023-09-19T00:32:29;97424.63;;;7.31;97.69
54554;BME280;40450;55.848;-3.572;2023-09-19T00:34:55;97420.66;;;7.65;97.06
54554;BME280;40450;55.848;-3.572;2023-09-19T00:37:25;97420.89;;;7.23;97.72
54554;BME280;40450;55.848;-3.572;2023-09-19T00:40:04;97419.09;;;7.90;96.45
54554;BME280;40450;55.848;-3.572;2023-09-19T00:42:26;97421.87;;;8.23;95.41
54554;BME280;40450;55.848;-3.572;2023-09-19T00:44:56;97421.14;;;8.97;94.13
54554;BME280;40450;55.848;-3.572;2023-09-19T00:47:28;97418.87;;;9.55;92.67
54554;BME280;40450;55.848;-3.572;2023-09-19T00:49:57;97415.47;;;9.68;91.58
54554;BME280;40450;55.848;-3.572;2023-09-19T00:52:27;97416.72;;;10.93;89.91
54554;BME280;40450;55.848;-3.572;2023-09-19T00:54:57;97414.17;;;11.69;86.47
54554;BME280;40450;55.848;-3.572;2023-09-19T00:57:28;97417.30;;;11.58;85.89
54554;BME280;40450;55.848;-3.572;2023-09-19T00:59:58;97415.19;;;10.36;88.04
54554;BME280;40450;55.848;-3.572;2023-09-19T01:02:28;97419.32;;;10.98;86.96
54554;BME280;40450;55.848;-3.572;2023-09-19T01:04:59;97409.77;;;11.19;87.25
54554;BME280;40450;55.848;-3.572;2023-09-19T01:07:30;97396.98;;;11.74;85.05
54554;BME280;40450;55.848;-3.572;2023-09-19T01:10:00;97396.94;;;11.59;85.26
54554;BME280;40450;55.848;-3.572;2023-09-19T01:12:33;97395.34;;;10.84;87.33
54554;BME280;40450;55.848;-3.572;2023-09-19T01:15:06;97395.69;;;9.08;92.30
54554;BME280;40450;55.848;-3.572;2023-09-19T01:17:34;97390.99;;;8.92;92.88
54554;BME280;40450;55.848;-3.572;2023-09-19T01:20:16;97391.72;;;9.26;92.29
54554;BME280;40450;55.848;-3.572;2023-09-19T01:22:37;97396.56;;;9.39;92.14
54554;BME280;40450;55.848;-3.572;2023-09-19T01:30:08;97397.68;;;6.63;99.27
54554;BME280;40450;55.848;-3.572;2023-09-19T01:32:34;97393.87;;;7.65;97.60
54554;BME280;40450;55.848;-3.572;2023-09-19T01:35:03;97391.77;;;7.16;98.36
54554;BME280;40450;55.848;-3.572;2023-09-19T01:37:33;97389.17;;;7.76;96.86
54554;BME280;40450;55.848;-3.572;2023-09-19T01:40:06;97388.59;;;7.64;97.29
54554;BME280;40450;55.848;-3.572;2023-09-19T01:42:40;97390.12;;;7.45;97.97
54554;BME280;40450;55.848;-3.572;2023-09-19T01:45:09;97390.45;;;7.82;97.20
54554;BME280;40450;55.848;-3.572;2023-09-19T01:47:38;97396.18;;;8.08;96.49
54554;BME280;40450;55.848;-3.572;2023-09-19T01:50:20;97389.47;;;7.83;97.02
54554;BME280;40450;55.848;-3.572;2023-09-19T01:52:42;97392.22;;;8.06;96.43
54554;BME280;40450;55.848;-3.572;2023-09-19T01:55:08;97387.73;;;7.85;96.79
54554;BME280;40450;55.848;-3.572;2023-09-19T01:57:49;97383.00;;;7.78;97.19
54554;BME280;40450;55.848;-3.572;2023-09-19T02:00:10;97385.45;;;8.32;96.28
54554;BME280;40450;55.848;-3.572;2023-09-19T02:02:38;97386.33;;;7.79;97.03
54554;BME280;40450;55.848;-3.572;2023-09-19T02:05:08;97379.14;;;7.94;96.37
54554;BME280;40450;55.848;-3.572;2023-09-19T02:07:38;97376.32;;;7.46;97.75
54554;BME280;40450;55.848;-3.572;2023-09-19T02:10:08;97373.38;;;6.70;98.80
54554;BME280;40450;55.848;-3.572;2023-09-19T02:12:38;97368.13;;;7.49;98.14
54554;BME280;40450;55.848;-3.572;2023-09-19T02:15:09;97365.65;;;7.06;98.76
54554;BME280;40450;55.848;-3.572;2023-09-19T02:17:39;97354.04;;;8.77;96.54
54554;BME280;40450;55.848;-3.572;2023-09-19T02:20:10;97351.74;;;8.83;94.95
54554;BME280;40450;55.848;-3.572;2023-09-19T02:22:40;97353.44;;;9.65;93.54
54554;BME280;40450;55.848;-3.572;2023-09-19T02:25:10;97350.31;;;9.67;92.42
54554;BME280;40450;55.848;-3.572;2023-09-19T02:27:46;97342.42;;;10.61;90.27
54554;BME280;40450;55.848;-3.572;2023-09-19T02:30:12;97324.21;;;10.55;88.92
54554;BME280;40450;55.848;-3.572;2023-09-19T02:32:42;97328.52;;;10.71;88.05
54554;BME280;40450;55.848;-3.572;2023-09-19T02:35:12;97319.71;;;11.42;87.66
54554;BME280;40450;55.848;-3.572;2023-09-19T02:37:42;97329.56;;;11.04;85.12
54554;BME280;40450;55.848;-3.572;2023-09-19T02:40:13;97322.24;;;11.86;85.01
54554;BME280;40450;55.848;-3.572;2023-09-19T02:42:43;97315.86;;;11.72;84.17
54554;BME280;40450;55.848;-3.572;2023-09-19T02:45:14;97311.51;;;12.18;81.61
54554;BME280;40450;55.848;-3.572;2023-09-19T02:47:44;97312.92;;;12.63;81.86
54554;BME280;40450;55.848;-3.572;2023-09-19T02:50:14;97318.30;;;12.20;81.29
54554;BME280;40450;55.848;-3.572;2023-09-19T02:52:46;97307.85;;;11.60;83.65
54554;BME280;40450;55.848;-3.572;2023-09-19T02:55:16;97307.31;;;11.64;83.07
54554;BME280;40450;55.848;-3.572;2023-09-19T02:57:47;97312.94;;;12.34;81.54
54554;BME280;40450;55.848;-3.572;2023-09-19T03:00:17;97310.41;;;12.01;82.31
54554;BME280;40450;55.848;-3.572;2023-09-19T03:02:46;97310.79;;;11.47;83.73
54554;BME280;40450;55.848;-3.572;2023-09-19T03:05:17;97299.94;;;11.39;84.40
54554;BME280;40450;55.848;-3.572;2023-09-19T03:07:52;97280.17;;;11.46;84.20
54554;BME280;40450;55.848;-3.572;2023-09-19T03:10:17;97279.67;;;11.87;83.79
54554;BME280;40450;55.848;-3.572;2023-09-19T03:12:48;97272.04;;;11.92;83.01
54554;BME280;40450;55.848;-3.572;2023-09-19T03:15:18;97270.81;;;12.51;81.81
54554;BME280;40450;55.848;-3.572;2023-09-19T03:17:49;97274.76;;;11.95;82.73
54554;BME280;40450;55.848;-3.572;2023-09-19T03:20:19;97262.89;;;11.06;85.30
54554;BME280;40450;55.848;-3.572;2023-09-19T03:22:49;97263.77;;;10.04;88.05
54554;BME280;40450;55.848;-3.572;2023-09-19T03:25:19;97254.71;;;8.80;92.38
54554;BME280;40450;55.848;-3.572;2023-09-19T03:27:50;97248.97;;;8.81;93.02
54554;BME280;40450;55.848;-3.572;2023-09-19T03:30:20;97243.35;;;9.10;92.77
54554;BME280;40450;55.848;-3.572;2023-09-19T03:32:50;97230.27;;;9.09;92.90
54554;BME280;40450;55.848;-3.572;2023-09-19T03:35:21;97225.81;;;9.04;93.20
54554;BME280;40450;55.848;-3.572;2023-09-19T03:37:51;97221.03;;;8.65;94.45
54554;BME280;40450;55.848;-3.572;2023-09-19T03:40:21;97208.94;;;8.46;94.99
54554;BME280;40450;55.848;-3.572;2023-09-19T03:42:51;97204.58;;;8.60;95.10
54554;BME280;40450;55.848;-3.572;2023-09-19T03:45:22;97204.69;;;7.56;97.33
54554;BME280;40450;55.848;-3.572;2023-09-19T03:47:52;97214.55;;;7.16;98.36
54554;BME280;40450;55.848;-3.572;2023-09-19T03:50:22;97193.42;;;7.50;98.20
54554;BME280;40450;55.848;-3.572;2023-09-19T03:52:57;97187.14;;;7.50;98.40
54554;BME280;40450;55.848;-3.572;2023-09-19T03:55:23;97179.99;;;8.20;96.72
54554;BME280;40450;55.848;-3.572;2023-09-19T03:57:54;97167.88;;;8.49;96.19
54554;BME280;40450;55.848;-3.572;2023-09-19T04:00:24;97165.53;;;7.93;97.26
54554;BME280;40450;55.848;-3.572;2023-09-19T04:02:55;97166.54;;;7.93;97.56
54554;BME280;40450;55.848;-3.572;2023-09-19T04:05:25;97166.70;;;7.36;98.40
54554;BME280;40450;55.848;-3.572;2023-09-19T04:07:55;97149.63;;;7.46;98.52
54554;BME280;40450;55.848;-3.572;2023-09-19T04:10:25;97153.41;;;7.19;98.88
54554;BME280;40450;55.848;-3.572;2023-09-19T04:12:56;97150.65;;;7.91;97.94
54554;BME280;40450;55.848;-3.572;2023-09-19T04:15:26;97148.05;;;7.60;98.07
54554;BME280;40450;55.848;-3.572;2023-09-19T04:18:02;97148.69;;;7.74;98.13
54554;BME280;40450;55.848;-3.572;2023-09-19T04:20:27;97149.52;;;7.74;98.09
54554;BME280;40450;55.848;-3.572;2023-09-19T04:22:57;97150.15;;;7.58;98.10
54554;BME280;40450;55.848;-3.572;2023-09-19T04:25:28;97149.13;;;7.46;98.55
54554;BME280;40450;55.848;-3.572;2023-09-19T04:28:03;97145.56;;;7.13;99.20
54554;BME280;40450;55.848;-3.572;2023-09-19T04:30:28;97147.59;;;6.81;99.64
54554;BME280;40450;55.848;-3.572;2023-09-19T04:32:59;97135.77;;;7.16;99.39
54554;BME280;40450;55.848;-3.572;2023-09-19T04:35:29;97135.43;;;6.92;99.86
54554;BME280;40450;55.848;-3.572;2023-09-19T04:37:59;97131.55;;;6.83;100.00
54554;BME280;40450;55.848;-3.572;2023-09-19T04:40:30;97132.34;;;7.12;99.81
54554;BME280;40450;55.848;-3.572;2023-09-19T04:43:00;97133.46;;;7.23;99.23
54554;BME280;40450;55.848;-3.572;2023-09-19T04:45:30;97127.41;;;7.26;99.50
54554;BME280;40450;55.848;-3.572;2023-09-19T04:48:01;97114.63;;;7.61;98.59
54554;BME280;40450;55.848;-3.572;2023-09-19T04:50:31;97113.62;;;7.67;98.30
54554;BME280;40450;55.848;-3.572;2023-09-19T04:53:02;97110.22;;;8.41;97.17
54554;BME280;40450;55.848;-3.572;2023-09-19T04:55:32;97105.19;;;7.81;97.81
54554;BME280;40450;55.848;-3.572;2023-09-19T04:58:03;97106.05;;;7.05;98.45
54554;BME280;40450;55.848;-3.572;2023-09-19T05:00:33;97111.66;;;6.78;99.58
54554;BME280;40450;55.848;-3.572;2023-09-19T05:03:04;97110.36;;;7.60;98.12
54554;BME280;40450;55.848;-3.572;2023-09-19T05:05:33;97114.78;;;7.29;98.18
54554;BME280;40450;55.848;-3.572;2023-09-19T05:08:04;97114.67;;;6.86;98.61
54554;BME280;40450;55.848;-3.572;2023-09-19T05:10:34;97105.85;;;7.04;99.01
54554;BME280;40450;55.848;-3.572;2023-09-19T05:13:05;97102.09;;;6.39;99.49
54554;BME280;40450;55.848;-3.572;2023-09-19T05:15:35;97112.13;;;6.58;99.69
54554;BME280;40450;55.848;-3.572;2023-09-19T05:18:05;97106.76;;;6.39;100.00
54554;BME280;40450;55.848;-3.572;2023-09-19T05:20:36;97104.77;;;6.84;99.66
54554;BME280;40450;55.848;-3.572;2023-09-19T05:23:07;97106.27;;;6.26;99.82
54554;BME280;40450;55.848;-3.572;2023-09-19T05:25:37;97098.66;;;6.13;100.00
54554;BME280;40450;55.848;-3.572;2023-09-19T05:28:08;97103.28;;;5.87;100.00
54554;BME280;40450;55.848;-3.572;2023-09-19T05:30:37;97103.07;;;5.22;100.00
54554;BME280;40450;55.848;-3.572;2023-09-19T05:33:08;97105.38;;;6.00;100.00
54554;BME280;40450;55.848;-3.572;2023-09-19T05:35:38;97108.44;;;6.44;100.00
54554;BME280;40450;55.848;-3.572;2023-09-19T05:38:09;97104.42;;;5.52;100.00
54554;BME280;40450;55.848;-3.572;2023-09-19T05:40:39;97108.25;;;5.72;100.00
54554;BME280;40450;55.848;-3.572;2023-09-19T05:43:09;97099.11;;;5.80;100.00
54554;BME280;40450;55.848;-3.572;2023-09-19T05:45:41;97089.22;;;5.11;100.00
54554;BME280;40450;55.848;-3.572;2023-09-19T05:48:11;97087.33;;;5.44;100.00
54554;BME280;40450;55.848;-3.572;2023-09-19T05:50:41;97100.68;;;5.42;100.00
54554;BME280;40450;55.848;-3.572;2023-09-19T05:53:11;97087.07;;;5.78;100.00
54554;BME280;40450;55.848;-3.572;2023-09-19T05:55:46;97078.43;;;5.95;100.00
54554;BME280;40450;55.848;-3.572;2023-09-19T05:58:12;97082.52;;;6.00;100.00
54554;BME280;40450;55.848;-3.572;2023-09-19T06:00:42;97090.06;;;6.14;100.00
54554;BME280;40450;55.848;-3.572;2023-09-19T06:04:00;97098.71;;;6.83;99.10
54554;BME280;40450;55.848;-3.572;2023-09-19T06:05:43;97104.12;;;7.00;98.54
54554;BME280;40450;55.848;-3.572;2023-09-19T06:08:14;97102.89;;;6.82;98.69
54554;BME280;40450;55.848;-3.572;2023-09-19T06:10:44;97103.11;;;6.06;99.62
54554;BME280;40450;55.848;-3.572;2023-09-19T06:13:15;97101.20;;;6.51;99.65
54554;BME280;40450;55.848;-3.572;2023-09-19T06:15:44;97087.85;;;6.09;100.00
54554;BME280;40450;55.848;-3.572;2023-09-19T06:18:14;97082.23;;;6.38;99.69
54554;BME280;40450;55.848;-3.572;2023-09-19T06:20:44;97083.61;;;6.61;99.81
54554;BME280;40450;55.848;-3.572;2023-09-19T06:23:15;97069.24;;;7.00;98.40
54554;BME280;40450;55.848;-3.572;2023-09-19T06:25:46;97063.20;;;7.43;97.41
54554;BME280;40450;55.848;-3.572;2023-09-19T06:28:16;97056.72;;;7.79;96.79
54554;BME280;40450;55.848;-3.572;2023-09-19T06:30:46;97059.50;;;8.12;95.99
54554;BME280;40450;55.848;-3.572;2023-09-19T06:33:17;97056.45;;;8.09;95.30
54554;BME280;40450;55.848;-3.572;2023-09-19T06:35:47;97046.06;;;7.87;95.86
54554;BME280;40450;55.848;-3.572;2023-09-19T06:38:17;97051.39;;;8.16;95.15
54554;BME280;40450;55.848;-3.572;2023-09-19T06:40:47;97048.79;;;8.18;95.38
54554;BME280;40450;55.848;-3.572;2023-09-19T06:43:18;97053.06;;;8.39;95.15
54554;BME280;40450;55.848;-3.572;2023-09-19T06:45:48;97060.31;;;8.65;93.99
54554;BME280;40450;55.848;-3.572;2023-09-19T06:48:19;97057.33;;;9.51;93.40
54554;BME280;40450;55.848;-3.572;2023-09-19T06:50:49;97054.12;;;9.57;92.04
54554;BME280;40450;55.848;-3.572;2023-09-19T06:53:19;97057.83;;;9.71;91.57
54554;BME280;40450;55.848;-3.572;2023-09-19T06:55:55;97057.30;;;9.81;91.70
54554;BME280;40450;55.848;-3.572;2023-09-19T06:58:20;97064.84;;;10.12;90.67
54554;BME280;40450;55.848;-3.572;2023-09-19T07:00:50;97059.11;;;9.81;90.89
54554;BME280;40450;55.848;-3.572;2023-09-19T07:03:21;97051.35;;;9.41;91.47
54554;BME280;40450;55.848;-3.572;2023-09-19T07:05:51;97043.16;;;8.83;93.24
54554;BME280;40450;55.848;-3.572;2023-09-19T07:08:21;97046.42;;;8.18;94.42
54554;BME280;40450;55.848;-3.572;2023-09-19T07:10:52;97048.96;;;8.18;94.98
54554;BME280;40450;55.848;-3.572;2023-09-19T07:13:22;97040.54;;;8.56;94.28
54554;BME280;40450;55.848;-3.572;2023-09-19T07:15:53;97040.37;;;7.26;96.24
54554;BME280;40450;55.848;-3.572;2023-09-19T07:18:23;97035.94;;;7.71;96.28
54554;BME280;40450;55.848;-3.572;2023-09-19T07:20:57;97031.67;;;8.50;95.21
54554;BME280;40450;55.848;-3.572;2023-09-19T07:23:24;97011.13;;;7.86;95.43
54554;BME280;40450;55.848;-3.572;2023-09-19T07:25:57;97000.41;;;7.87;96.06
54554;BME280;40450;55.848;-3.572;2023-09-19T07:28:25;96998.36;;;7.21;97.51
54554;BME280;40450;55.848;-3.572;2023-09-19T07:30:55;96991.83;;;7.89;96.58
54554;BME280;40450;55.848;-3.572;2023-09-19T07:33:25;96994.04;;;8.55;94.97
54554;BME280;40450;55.848;-3.572;2023-09-19T07:35:56;96991.57;;;8.20;95.62
54554;BME280;40450;55.848;-3.572;2023-09-19T07:38:26;96994.23;;;8.85;94.49
54554;BME280;40450;55.848;-3.572;2023-09-19T07:41:00;96991.24;;;8.24;95.14
54554;BME280;40450;55.848;-3.572;2023-09-19T07:43:27;96987.73;;;8.52;94.76
54554;BME280;40450;55.848;-3.572;2023-09-19T07:45:57;96999.61;;;9.12;93.75
54554;BME280;40450;55.848;-3.572;2023-09-19T07:48:27;97008.26;;;9.08;93.03
54554;BME280;40450;55.848;-3.572;2023-09-19T07:51:02;97008.10;;;9.83;92.08
54554;BME280;40450;55.848;-3.572;2023-09-19T07:53:28;97001.68;;;9.51;91.69
54554;BME280;40450;55.848;-3.572;2023-09-19T07:56:03;97003.29;;;9.73;91.35
54554;BME280;40450;55.848;-3.572;2023-09-19T07:58:29;97005.83;;;10.01;90.96
54554;BME280;40450;55.848;-3.572;2023-09-19T08:01:03;97004.95;;;9.63;91.70
54554;BME280;40450;55.848;-3.572;2023-09-19T08:03:29;97000.14;;;8.83;93.58
54554;BME280;40450;55.848;-3.572;2023-09-19T08:06:00;96997.26;;;9.46;92.72
54554;BME280;40450;55.848;-3.572;2023-09-19T08:08:30;96986.20;;;8.81;94.20
54554;BME280;40450;55.848;-3.572;2023-09-19T08:11:00;96988.27;;;8.19;95.19
54554;BME280;40450;55.848;-3.572;2023-09-19T08:13:31;96977.24;;;8.40;95.03
54554;BME280;40450;55.848;-3.572;2023-09-19T08:16:03;96971.55;;;8.96;93.98
54554;BME280;40450;55.848;-3.572;2023-09-19T08:18:32;96973.87;;;8.71;94.65
54554;BME280;40450;55.848;-3.572;2023-09-19T08:21:02;96971.01;;;8.69;94.92
54554;BME280;40450;55.848;-3.572;2023-09-19T08:23:32;96968.53;;;8.96;94.70
54554;BME280;40450;55.848;-3.572;2023-09-19T08:26:03;96977.50;;;8.69;94.49
54554;BME280;40450;55.848;-3.572;2023-09-19T08:28:34;96976.21;;;8.94;94.28
54554;BME280;40450;55.848;-3.572;2023-09-19T08:31:06;96981.03;;;7.86;96.95
54554;BME280;40450;55.848;-3.572;2023-09-19T08:33:35;96973.32;;;8.34;96.01
54554;BME280;40450;55.848;-3.572;2023-09-19T08:36:06;96964.55;;;8.75;95.43
54554;BME280;40450;55.848;-3.572;2023-09-19T08:38:35;96959.97;;;9.31;94.16
54554;BME280;40450;55.848;-3.572;2023-09-19T08:41:07;96957.83;;;9.13;94.13
54554;BME280;40450;55.848;-3.572;2023-09-19T08:43:36;96954.07;;;8.33;96.27
54554;BME280;40450;55.848;-3.572;2023-09-19T08:46:10;96951.55;;;8.46;96.68
54554;BME280;40450;55.848;-3.572;2023-09-19T08:48:39;96954.26;;;8.48;96.83
54554;BME280;40450;55.848;-3.572;2023-09-19T08:51:15;96942.98;;;8.15;97.24
54554;BME280;40450;55.848;-3.572;2023-09-19T08:53:42;96937.51;;;8.65;96.77
54554;BME280;40450;55.848;-3.572;2023-09-19T08:56:10;96939.30;;;9.47;95.22
54554;BME280;40450;55.848;-3.572;2023-09-19T08:58:45;96936.33;;;9.49;95.11
54554;BME280;40450;55.848;-3.572;2023-09-19T09:01:10;96931.56;;;9.40;94.65
54554;BME280;40450;55.848;-3.572;2023-09-19T09:03:40;96927.46;;;10.40;93.40
54554;BME280;40450;55.848;-3.572;2023-09-19T09:06:09;96927.43;;;10.37;92.85
54554;BME280;40450;55.848;-3.572;2023-09-19T09:08:40;96924.10;;;9.96;93.65
54554;BME280;40450;55.848;-3.572;2023-09-19T09:11:11;96925.39;;;9.72;94.40
54554;BME280;40450;55.848;-3.572;2023-09-19T09:13:41;96917.82;;;9.69;94.88
54554;BME280;40450;55.848;-3.572;2023-09-19T09:16:16;96921.30;;;9.26;95.66
54554;BME280;40450;55.848;-3.572;2023-09-19T09:18:42;96915.57;;;8.68;97.13
54554;BME280;40450;55.848;-3.572;2023-09-19T09:21:12;96915.75;;;9.20;96.64
54554;BME280;40450;55.848;-3.572;2023-09-19T09:23:42;96913.01;;;8.50;97.55
54554;BME280;40450;55.848;-3.572;2023-09-19T09:26:12;96911.56;;;7.73;98.86
54554;BME280;40450;55.848;-3.572;2023-09-19T09:28:45;96904.53;;;7.95;98.62
54554;BME280;40450;55.848;-3.572;2023-09-19T09:33:52;96912.06;;;8.99;96.39
54554;BME280;40450;55.848;-3.572;2023-09-19T09:36:14;96926.79;;;10.24;95.71
54554;BME280;40450;55.848;-3.572;2023-09-19T09:38:46;96916.37;;;10.63;94.05
54554;BME280;40450;55.848;-3.572;2023-09-19T09:41:16;96909.65;;;10.96;93.04
54554;BME280;40450;55.848;-3.572;2023-09-19T09:43:45;96904.80;;;10.57;92.74
54554;BME280;40450;55.848;-3.572;2023-09-19T09:46:16;96922.41;;;9.77;93.55
54554;BME280;40450;55.848;-3.572;2023-09-19T09:48:45;96921.26;;;9.66;93.12
54554;BME280;40450;55.848;-3.572;2023-09-19T09:53:46;96916.22;;;10.68;92.45
54554;BME280;40450;55.848;-3.572;2023-09-19T09:56:21;96916.48;;;11.10;91.07
54554;BME280;40450;55.848;-3.572;2023-09-19T09:58:50;96924.48;;;10.54;91.30
54554;BME280;40450;55.848;-3.572;2023-09-19T10:01:18;96919.24;;;10.74;91.79
54554;BME280;40450;55.848;-3.572;2023-09-19T10:03:48;96916.72;;;10.58;91.78
54554;BME280;40450;55.848;-3.572;2023-09-19T10:06:18;96918.71;;;10.41;90.53
54554;BME280;40450;55.848;-3.572;2023-09-19T10:11:19;96917.67;;;10.11;92.60
54554;BME280;40450;55.848;-3.572;2023-09-19T10:13:49;96921.66;;;10.96;91.70
54554;BME280;40450;55.848;-3.572;2023-09-19T10:16:20;96922.45;;;11.24;90.72
54554;BME280;40450;55.848;-3.572;2023-09-19T10:18:51;96930.17;;;10.56;92.17
54554;BME280;40450;55.848;-3.572;2023-09-19T10:21:20;96930.38;;;10.51;92.58
54554;BME280;40450;55.848;-3.572;2023-09-19T10:23:51;96927.57;;;9.98;93.20
54554;BME280;40450;55.848;-3.572;2023-09-19T10:26:21;96919.88;;;10.91;92.02
54554;BME280;40450;55.848;-3.572;2023-09-19T10:28:51;96919.38;;;11.04;91.51
54554;BME280;40450;55.848;-3.572;2023-09-19T10:31:28;96908.93;;;11.05;90.45
54554;BME280;40450;55.848;-3.572;2023-09-19T10:33:53;96914.23;;;11.44;89.69
54554;BME280;40450;55.848;-3.572;2023-09-19T10:36:24;96924.37;;;10.62;90.21
54554;BME280;40450;55.848;-3.572;2023-09-19T10:38:57;96924.70;;;10.69;91.87
54554;BME280;40450;55.848;-3.572;2023-09-19T10:41:29;96929.47;;;10.44;92.73
54554;BME280;40450;55.848;-3.572;2023-09-19T10:43:58;96933.28;;;11.09;91.51
54554;BME280;40450;55.848;-3.572;2023-09-19T10:46:24;96936.95;;;11.61;89.67
54554;BME280;40450;55.848;-3.572;2023-09-19T10:48:59;96939.51;;;11.87;88.50
54554;BME280;40450;55.848;-3.572;2023-09-19T10:51:25;96935.78;;;13.41;85.60
54554;BME280;40450;55.848;-3.572;2023-09-19T10:54:00;96929.75;;;13.22;84.43
54554;BME280;40450;55.848;-3.572;2023-09-19T10:56:29;96936.44;;;12.94;85.10
54554;BME280;40450;55.848;-3.572;2023-09-19T11:06:27;96941.30;;;13.18;83.50
54554;BME280;40450;55.848;-3.572;2023-09-19T11:08:59;96945.84;;;13.70;83.23
54554;BME280;40450;55.848;-3.572;2023-09-19T11:16:28;96950.93;;;15.22;78.07
54554;BME280;40450;55.848;-3.572;2023-09-19T11:18:58;96946.76;;;16.01;78.56
54554;BME280;40450;55.848;-3.572;2023-09-19T11:26:41;96947.78;;;16.21;75.31
54554;BME280;40450;55.848;-3.572;2023-09-19T11:36:35;96971.93;;;14.32;78.98
54554;BME280;40450;55.848;-3.572;2023-09-19T11:39:01;96968.79;;;15.38;77.54
54554;BME280;40450;55.848;-3.572;2023-09-19T11:41:36;96963.65;;;15.52;76.73
54554;BME280;40450;55.848;-3.572;2023-09-19T11:46:33;96963.43;;;15.43;76.25
54554;BME280;40450;55.848;-3.572;2023-09-19T11:49:06;96980.52;;;15.01;77.53
54554;BME280;40450;55.848;-3.572;2023-09-19T11:51:39;96968.44;;;15.63;76.76
54554;BME280;40450;55.848;-3.572;2023-09-19T11:54:03;96963.12;;;13.82;79.96
54554;BME280;40450;55.848;-3.572;2023-09-19T11:56:39;96960.96;;;15.11;77.33
54554;BME280;40450;55.848;-3.572;2023-09-19T11:59:13;96961.45;;;14.84;78.47
54554;BME280;40450;55.848;-3.572;2023-09-19T12:01:34;96963.73;;;14.89;79.69
54554;BME280;40450;55.848;-3.572;2023-09-19T12:04:05;96969.56;;;14.76;78.90
54554;BME280;40450;55.848;-3.572;2023-09-19T12:06:36;96972.58;;;14.79;78.95
54554;BME280;40450;55.848;-3.572;2023-09-19T12:09:06;96979.45;;;14.36;79.00
54554;BME280;40450;55.848;-3.572;2023-09-19T12:11:41;96982.02;;;14.40;79.37
54554;BME280;40450;55.848;-3.572;2023-09-19T12:14:06;96974.22;;;14.74;78.93
54554;BME280;40450;55.848;-3.572;2023-09-19T12:16:36;96970.81;;;14.56;79.90
54554;BME280;40450;55.848;-3.572;2023-09-19T12:21:37;96967.29;;;14.43;81.42
54554;BME280;40450;55.848;-3.572;2023-09-19T12:24:11;96959.11;;;14.83;81.13
54554;BME280;40450;55.848;-3.572;2023-09-19T12:26:39;96956.99;;;14.73;80.69
54554;BME280;40450;55.848;-3.572;2023-09-19T12:29:13;96954.27;;;14.48;81.06
54554;BME280;40450;55.848;-3.572;2023-09-19T12:31:47;96949.80;;;15.83;78.20
54554;BME280;40450;55.848;-3.572;2023-09-19T12:34:09;96953.51;;;15.91;76.12
54554;BME280;40450;55.848;-3.572;2023-09-19T12:36:39;96959.31;;;16.22;76.43
54554;BME280;40450;55.848;-3.572;2023-09-19T12:39:09;96958.48;;;15.77;76.84
54554;BME280;40450;55.848;-3.572;2023-09-19T12:41:40;96962.80;;;15.49;77.24
54554;BME280;40450;55.848;-3.572;2023-09-19T12:44:11;96960.56;;;15.16;77.51
54554;BME280;40450;55.848;-3.572;2023-09-19T12:46:40;96959.30;;;13.45;82.29
54554;BME280;40450;55.848;-3.572;2023-09-19T12:49:15;96960.31;;;14.54;80.34
54554;BME280;40450;55.848;-3.572;2023-09-19T12:51:41;96957.86;;;15.12;79.16
54554;BME280;40450;55.848;-3.572;2023-09-19T12:54:12;96956.80;;;15.30;78.40
54554;BME280;40450;55.848;-3.572;2023-09-19T12:56:42;96970.57;;;15.29;77.52
54554;BME280;40450;55.848;-3.572;2023-09-19T12:59:13;96963.16;;;15.52;76.73
54554;BME280;40450;55.848;-3.572;2023-09-19T13:01:43;96972.86;;;15.29;76.97
54554;BME280;40450;55.848;-3.572;2023-09-19T13:04:14;96978.06;;;14.54;79.75
54554;BME280;40450;55.848;-3.572;2023-09-19T13:06:43;96976.24;;;14.97;79.15
54554;BME280;40450;55.848;-3.572;2023-09-19T13:09:13;96980.71;;;14.44;80.03
54554;BME280;40450;55.848;-3.572;2023-09-19T13:11:44;96980.15;;;14.61;79.72
54554;BME280;40450;55.848;-3.572;2023-09-19T13:14:16;96975.37;;;14.51;79.32
54554;BME280;40450;55.848;-3.572;2023-09-19T13:16:53;96971.78;;;14.43;79.43
54554;BME280;40450;55.848;-3.572;2023-09-19T13:21:45;96971.00;;;14.76;79.34
54554;BME280;40450;55.848;-3.572;2023-09-19T13:24:20;96966.10;;;15.02;79.59
54554;BME280;40450;55.848;-3.572;2023-09-19T13:26:45;96960.61;;;14.37;80.02
54554;BME280;40450;55.848;-3.572;2023-09-19T13:29:16;96959.85;;;14.40;80.11
54554;BME280;40450;55.848;-3.572;2023-09-19T13:31:47;96960.71;;;14.22;82.17
54554;BME280;40450;55.848;-3.572;2023-09-19T13:34:16;96959.98;;;14.62;80.90
54554;BME280;40450;55.848;-3.572;2023-09-19T13:36:47;96949.62;;;14.36;82.10
54554;BME280;40450;55.848;-3.572;2023-09-19T13:39:17;96950.33;;;14.12;83.70
54554;BME280;40450;55.848;-3.572;2023-09-19T13:41:47;96947.14;;;14.14;83.74
54554;BME280;40450;55.848;-3.572;2023-09-19T13:44:17;96950.87;;;14.57;82.36
54554;BME280;40450;55.848;-3.572;2023-09-19T13:46:48;96952.28;;;14.50;82.34
54554;BME280;40450;55.848;-3.572;2023-09-19T13:49:18;96941.26;;;13.76;84.05
54554;BME280;40450;55.848;-3.572;2023-09-19T13:51:49;96940.23;;;14.42;83.31
54554;BME280;40450;55.848;-3.572;2023-09-19T13:54:19;96939.35;;;12.82;84.81
54554;BME280;40450;55.848;-3.572;2023-09-19T13:56:49;96938.44;;;12.71;86.64